sensor_id;sensor_type;location;lat;lon;timestamp;pressure;altitude;pressure_sealevel;temperature;humidity
33404;BME280;19751;40.274;18.268;2023-02-12T00:00:20;102582.94;;;6.39;100.00
33404;BME280;19751;40.274;18.268;2023-02-12T00:02:46;102579.13;;;6.42;100.00
33404;BME280;19751;40.274;18.268;2023-02-12T00:05:12;102578.28;;;6.41;100.00
33404;BME280;19751;40.274;18.268;2023-02-12T00:07:38;102575.38;;;6.44;100.00
33404;BME280;19751;40.274;18.268;2023-02-12T00:10:04;102583.28;;;6.46;100.00
33404;BME280;19751;40.274;18.268;2023-02-12T00:12:29;102580.59;;;6.46;100.00
33404;BME280;19751;40.274;18.268;2023-02-12T00:14:55;102579.88;;;6.44;100.00
33404;BME280;19751;40.274;18.268;2023-02-12T00:17:20;102578.06;;;6.44;100.00
33404;BME280;19751;40.274;18.268;2023-02-12T00:19:46;102576.84;;;6.48;100.00
33404;BME280;19751;40.274;18.268;2023-02-12T00:22:12;102579.19;;;6.53;100.00
33404;BME280;19751;40.274;18.268;2023-02-12T00:24:37;102570.78;;;6.58;100.00
33404;BME280;19751;40.274;18.268;2023-02-12T00:27:03;102568.59;;;6.63;100.00
33404;BME280;19751;40.274;18.268;2023-02-12T00:29:28;102573.94;;;6.63;100.00
33404;BME280;19751;40.274;18.268;2023-02-12T00:31:54;102569.97;;;6.68;100.00
33404;BME280;19751;40.274;18.268;2023-02-12T00:34:19;102563.50;;;6.71;100.00
33404;BME280;19751;40.274;18.268;2023-02-12T00:36:45;102559.75;;;6.73;100.00
33404;BME280;19751;40.274;18.268;2023-02-12T00:39:10;102557.69;;;6.77;100.00
33404;BME280;19751;40.274;18.268;2023-02-12T00:41:36;102562.44;;;6.85;100.00
33404;BME280;19751;40.274;18.268;2023-02-12T00:44:02;102562.78;;;6.91;100.00
33404;BME280;19751;40.274;18.268;2023-02-12T00:46:27;102553.44;;;6.97;100.00
33404;BME280;19751;40.274;18.268;2023-02-12T00:48:53;102553.31;;;6.98;100.00
33404;BME280;19751;40.274;18.268;2023-02-12T00:51:18;102551.47;;;6.99;100.00
33404;BME280;19751;40.274;18.268;2023-02-12T00:53:44;102549.16;;;7.06;100.00
33404;BME280;19751;40.274;18.268;2023-02-12T00:56:09;102540.88;;;7.09;100.00
33404;BME280;19751;40.274;18.268;2023-02-12T00:58:35;102538.78;;;7.12;100.00
33404;BME280;19751;40.274;18.268;2023-02-12T01:01:00;102540.25;;;7.16;100.00
33404;BME280;19751;40.274;18.268;2023-02-12T01:03:26;102536.34;;;7.20;100.00
33404;BME280;19751;40.274;18.268;2023-02-12T01:05:52;102530.16;;;7.20;100.00
33404;BME280;19751;40.274;18.268;2023-02-12T01:08:18;102537.19;;;7.21;100.00
33404;BME280;19751;40.274;18.268;2023-02-12T01:10:43;102535.75;;;7.17;100.00
33404;BME280;19751;40.274;18.268;2023-02-12T01:13:13;102530.53;;;7.15;100.00
33404;BME280;19751;40.274;18.268;2023-02-12T01:15:40;102524.69;;;7.10;100.00
33404;BME280;19751;40.274;18.268;2023-02-12T01:18:06;102526.50;;;7.10;100.00
33404;BME280;19751;40.274;18.268;2023-02-12T01:20:31;102522.09;;;7.09;100.00
33404;BME280;19751;40.274;18.268;2023-02-12T01:22:57;102513.34;;;7.07;100.00
33404;BME280;19751;40.274;18.268;2023-02-12T01:25:22;102517.25;;;7.03;100.00
33404;BME280;19751;40.274;18.268;2023-02-12T01:27:48;102511.16;;;7.01;100.00
33404;BME280;19751;40.274;18.268;2023-02-12T01:30:14;102517.63;;;6.98;100.00
33404;BME280;19751;40.274;18.268;2023-02-12T01:32:40;102510.31;;;7.00;100.00
33404;BME280;19751;40.274;18.268;2023-02-12T01:35:07;102508.47;;;7.01;100.00
33404;BME280;19751;40.274;18.268;2023-02-12T01:37:35;102495.22;;;6.99;100.00
33404;BME280;19751;40.274;18.268;2023-02-12T01:40:02;102501.41;;;7.00;100.00
33404;BME280;19751;40.274;18.268;2023-02-12T01:42:27;102511.91;;;7.03;100.00
33404;BME280;19751;40.274;18.268;2023-02-12T01:47:38;102492.91;;;7.06;100.00
33404;BME280;19751;40.274;18.268;2023-02-12T01:50:06;102494.59;;;7.07;100.00
33404;BME280;19751;40.274;18.268;2023-02-12T01:52:35;102489.94;;;7.09;100.00
33404;BME280;19751;40.274;18.268;2023-02-12T01:55:05;102490.94;;;7.08;100.00
33404;BME280;19751;40.274;18.268;2023-02-12T01:57:34;102491.69;;;7.10;100.00
33404;BME280;19751;40.274;18.268;2023-02-12T02:00:07;102486.31;;;7.10;100.00
33404;BME280;19751;40.274;18.268;2023-02-12T02:02:33;102487.16;;;7.10;100.00
33404;BME280;19751;40.274;18.268;2023-02-12T02:05:02;102480.97;;;7.10;100.00
33404;BME280;19751;40.274;18.268;2023-02-12T02:07:28;102474.25;;;7.04;100.00
33404;BME280;19751;40.274;18.268;2023-02-12T02:09:55;102475.47;;;7.00;100.00
33404;BME280;19751;40.274;18.268;2023-02-12T02:12:21;102474.88;;;6.96;100.00
33404;BME280;19751;40.274;18.268;2023-02-12T02:15:13;102467.56;;;6.87;100.00
33404;BME280;19751;40.274;18.268;2023-02-12T02:18:00;102469.28;;;6.88;100.00
33404;BME280;19751;40.274;18.268;2023-02-12T02:23:43;102477.91;;;6.92;100.00
33404;BME280;19751;40.274;18.268;2023-02-12T02:36:31;102463.47;;;6.72;100.00
33404;BME280;19751;40.274;18.268;2023-02-12T02:39:13;102459.91;;;6.71;100.00
33404;BME280;19751;40.274;18.268;2023-02-12T02:44:24;102470.13;;;6.66;100.00
33404;BME280;19751;40.274;18.268;2023-02-12T02:46:52;102466.63;;;6.66;100.00
33404;BME280;19751;40.274;18.268;2023-02-12T02:49:44;102463.22;;;6.64;100.00
33404;BME280;19751;40.274;18.268;2023-02-12T02:52:17;102464.06;;;6.64;100.00
33404;BME280;19751;40.274;18.268;2023-02-12T02:54:54;102460.28;;;6.67;100.00
33404;BME280;19751;40.274;18.268;2023-02-12T02:57:28;102465.16;;;6.62;100.00
33404;BME280;19751;40.274;18.268;2023-02-12T03:00:04;102466.13;;;6.61;100.00
33404;BME280;19751;40.274;18.268;2023-02-12T03:02:35;102456.13;;;6.63;100.00
33404;BME280;19751;40.274;18.268;2023-02-12T03:05:08;102465.91;;;6.64;100.00
33404;BME280;19751;40.274;18.268;2023-02-12T03:07:38;102459.09;;;6.60;100.00
33404;BME280;19751;40.274;18.268;2023-02-12T03:10:11;102458.94;;;6.61;100.00
33404;BME280;19751;40.274;18.268;2023-02-12T03:15:43;102450.19;;;6.70;100.00
33404;BME280;19751;40.274;18.268;2023-02-12T03:18:30;102451.78;;;6.73;100.00
33404;BME280;19751;40.274;18.268;2023-02-12T03:21:02;102451.78;;;6.73;100.00
33404;BME280;19751;40.274;18.268;2023-02-12T03:23:36;102446.41;;;6.73;100.00
33404;BME280;19751;40.274;18.268;2023-02-12T03:26:12;102437.63;;;6.71;100.00
33404;BME280;19751;40.274;18.268;2023-02-12T03:28:39;102438.63;;;6.70;100.00
33404;BME280;19751;40.274;18.268;2023-02-12T03:37:13;102435.22;;;6.68;100.00
33404;BME280;19751;40.274;18.268;2023-02-12T03:43:09;102432.19;;;6.72;100.00
33404;BME280;19751;40.274;18.268;2023-02-12T03:53:34;102431.28;;;6.83;100.00
33404;BME280;19751;40.274;18.268;2023-02-12T03:56:05;102430.59;;;6.81;100.00
33404;BME280;19751;40.274;18.268;2023-02-12T03:58:33;102432.50;;;6.79;100.00
33404;BME280;19751;40.274;18.268;2023-02-12T04:01:00;102430.81;;;6.78;100.00
33404;BME280;19751;40.274;18.268;2023-02-12T04:03:27;102427.53;;;6.75;100.00
33404;BME280;19751;40.274;18.268;2023-02-12T04:05:53;102422.53;;;6.70;100.00
33404;BME280;19751;40.274;18.268;2023-02-12T04:08:19;102419.16;;;6.68;100.00
33404;BME280;19751;40.274;18.268;2023-02-12T04:10:52;102419.41;;;6.65;100.00
33404;BME280;19751;40.274;18.268;2023-02-12T04:16:25;102420.25;;;6.54;100.00
33404;BME280;19751;40.274;18.268;2023-02-12T04:18:54;102416.00;;;6.52;100.00
33404;BME280;19751;40.274;18.268;2023-02-12T04:24:30;102408.09;;;6.39;100.00
33404;BME280;19751;40.274;18.268;2023-02-12T04:27:15;102407.34;;;6.37;100.00
33404;BME280;19751;40.274;18.268;2023-02-12T04:30:02;102403.97;;;6.35;100.00
33404;BME280;19751;40.274;18.268;2023-02-12T04:32:44;102413.06;;;6.32;100.00
33404;BME280;19751;40.274;18.268;2023-02-12T04:38:16;102410.63;;;6.29;100.00
33404;BME280;19751;40.274;18.268;2023-02-12T04:40:43;102412.59;;;6.27;100.00
33404;BME280;19751;40.274;18.268;2023-02-12T04:43:09;102411.59;;;6.28;100.00
33404;BME280;19751;40.274;18.268;2023-02-12T04:45:36;102408.06;;;6.28;100.00
33404;BME280;19751;40.274;18.268;2023-02-12T04:48:03;102413.78;;;6.23;100.00
33404;BME280;19751;40.274;18.268;2023-02-12T04:50:40;102415.00;;;6.19;100.00
33404;BME280;19751;40.274;18.268;2023-02-12T04:53:06;102416.94;;;6.17;100.00
33404;BME280;19751;40.274;18.268;2023-02-12T04:55:32;102415.47;;;6.13;100.00
33404;BME280;19751;40.274;18.268;2023-02-12T04:57:57;102420.94;;;6.11;100.00
33404;BME280;19751;40.274;18.268;2023-02-12T05:00:23;102417.03;;;6.04;100.00
33404;BME280;19751;40.274;18.268;2023-02-12T05:02:49;102416.94;;;6.06;100.00
33404;BME280;19751;40.274;18.268;2023-02-12T05:05:14;102414.13;;;6.07;100.00
33404;BME280;19751;40.274;18.268;2023-02-12T05:07:40;102412.31;;;6.08;100.00
33404;BME280;19751;40.274;18.268;2023-02-12T05:10:06;102405.34;;;6.05;100.00
33404;BME280;19751;40.274;18.268;2023-02-12T05:12:31;102401.00;;;6.04;100.00
33404;BME280;19751;40.274;18.268;2023-02-12T05:14:57;102413.75;;;6.01;100.00
33404;BME280;19751;40.274;18.268;2023-02-12T05:17:23;102407.06;;;5.95;100.00
33404;BME280;19751;40.274;18.268;2023-02-12T05:19:48;102413.25;;;5.95;100.00
33404;BME280;19751;40.274;18.268;2023-02-12T05:22:14;102412.06;;;6.00;100.00
33404;BME280;19751;40.274;18.268;2023-02-12T05:24:39;102410.44;;;5.97;100.00
33404;BME280;19751;40.274;18.268;2023-02-12T05:27:05;102415.94;;;5.95;100.00
33404;BME280;19751;40.274;18.268;2023-02-12T05:29:32;102413.81;;;5.88;100.00
33404;BME280;19751;40.274;18.268;2023-02-12T05:31:57;102412.84;;;5.89;100.00
33404;BME280;19751;40.274;18.268;2023-02-12T05:34:23;102414.44;;;5.91;100.00
33404;BME280;19751;40.274;18.268;2023-02-12T05:36:48;102414.91;;;5.85;100.00
33404;BME280;19751;40.274;18.268;2023-02-12T05:39:14;102411.50;;;5.83;100.00
33404;BME280;19751;40.274;18.268;2023-02-12T05:41:39;102415.16;;;5.82;100.00
33404;BME280;19751;40.274;18.268;2023-02-12T05:44:05;102412.81;;;5.78;100.00
33404;BME280;19751;40.274;18.268;2023-02-12T05:46:31;102416.47;;;5.77;100.00
33404;BME280;19751;40.274;18.268;2023-02-12T05:48:57;102414.66;;;5.77;100.00
33404;BME280;19751;40.274;18.268;2023-02-12T05:51:24;102411.00;;;5.78;100.00
33404;BME280;19751;40.274;18.268;2023-02-12T05:53:55;102421.69;;;5.78;100.00
33404;BME280;19751;40.274;18.268;2023-02-12T05:56:24;102415.50;;;5.78;100.00
33404;BME280;19751;40.274;18.268;2023-02-12T05:58:55;102420.50;;;5.82;100.00
33404;BME280;19751;40.274;18.268;2023-02-12T06:01:28;102423.88;;;5.84;100.00
33404;BME280;19751;40.274;18.268;2023-02-12T06:03:54;102419.28;;;5.86;100.00
33404;BME280;19751;40.274;18.268;2023-02-12T06:06:19;102423.66;;;5.87;100.00
33404;BME280;19751;40.274;18.268;2023-02-12T06:08:48;102424.63;;;5.86;100.00
33404;BME280;19751;40.274;18.268;2023-02-12T06:11:15;102422.09;;;5.85;100.00
33404;BME280;19751;40.274;18.268;2023-02-12T06:13:41;102422.09;;;5.85;100.00
33404;BME280;19751;40.274;18.268;2023-02-12T06:16:25;102418.31;;;5.87;100.00
33404;BME280;19751;40.274;18.268;2023-02-12T06:18:53;102435.81;;;5.91;100.00
33404;BME280;19751;40.274;18.268;2023-02-12T06:21:20;102438.31;;;5.94;100.00
33404;BME280;19751;40.274;18.268;2023-02-12T06:23:46;102441.25;;;6.03;100.00
33404;BME280;19751;40.274;18.268;2023-02-12T06:26:12;102428.34;;;6.08;100.00
33404;BME280;19751;40.274;18.268;2023-02-12T06:28:38;102427.16;;;6.12;100.00
33404;BME280;19751;40.274;18.268;2023-02-12T06:31:03;102436.66;;;6.16;100.00
33404;BME280;19751;40.274;18.268;2023-02-12T06:33:29;102433.84;;;6.17;100.00
33404;BME280;19751;40.274;18.268;2023-02-12T06:35:55;102436.91;;;6.24;100.00
33404;BME280;19751;40.274;18.268;2023-02-12T06:38:20;102447.72;;;6.34;100.00
33404;BME280;19751;40.274;18.268;2023-02-12T06:40:46;102426.94;;;6.37;100.00
33404;BME280;19751;40.274;18.268;2023-02-12T06:43:12;102430.84;;;6.44;100.00
33404;BME280;19751;40.274;18.268;2023-02-12T06:45:37;102426.09;;;6.48;100.00
33404;BME280;19751;40.274;18.268;2023-02-12T06:48:03;102431.78;;;6.55;100.00
33404;BME280;19751;40.274;18.268;2023-02-12T06:50:29;102422.06;;;6.65;100.00
33404;BME280;19751;40.274;18.268;2023-02-12T06:52:54;102430.09;;;6.65;100.00
33404;BME280;19751;40.274;18.268;2023-02-12T06:55:20;102428.03;;;6.68;100.00
33404;BME280;19751;40.274;18.268;2023-02-12T06:57:45;102433.72;;;6.75;100.00
33404;BME280;19751;40.274;18.268;2023-02-12T07:00:11;102421.56;;;6.71;100.00
33404;BME280;19751;40.274;18.268;2023-02-12T07:02:37;102427.44;;;6.76;100.00
33404;BME280;19751;40.274;18.268;2023-02-12T07:05:03;102423.41;;;6.82;100.00
33404;BME280;19751;40.274;18.268;2023-02-12T07:07:28;102419.72;;;6.83;100.00
33404;BME280;19751;40.274;18.268;2023-02-12T07:09:54;102425.69;;;6.86;100.00
33404;BME280;19751;40.274;18.268;2023-02-12T07:12:19;102418.97;;;6.92;100.00
33404;BME280;19751;40.274;18.268;2023-02-12T07:14:45;102425.31;;;7.02;100.00
33404;BME280;19751;40.274;18.268;2023-02-12T07:17:11;102416.16;;;7.05;100.00
33404;BME280;19751;40.274;18.268;2023-02-12T07:19:36;102421.50;;;7.16;100.00
33404;BME280;19751;40.274;18.268;2023-02-12T07:22:02;102414.06;;;7.19;100.00
33404;BME280;19751;40.274;18.268;2023-02-12T07:24:28;102414.53;;;7.25;100.00
33404;BME280;19751;40.274;18.268;2023-02-12T07:26:54;102415.72;;;7.32;100.00
33404;BME280;19751;40.274;18.268;2023-02-12T07:29:20;102419.84;;;7.36;100.00
33404;BME280;19751;40.274;18.268;2023-02-12T07:31:46;102408.50;;;7.43;100.00
33404;BME280;19751;40.274;18.268;2023-02-12T07:34:11;102407.25;;;7.47;100.00
33404;BME280;19751;40.274;18.268;2023-02-12T07:36:37;102396.28;;;7.51;100.00
33404;BME280;19751;40.274;18.268;2023-02-12T07:39:03;102398.69;;;7.54;100.00
33404;BME280;19751;40.274;18.268;2023-02-12T07:41:31;102386.72;;;7.58;100.00
33404;BME280;19751;40.274;18.268;2023-02-12T07:43:59;102392.53;;;7.63;100.00
33404;BME280;19751;40.274;18.268;2023-02-12T07:46:31;102376.94;;;7.68;100.00
33404;BME280;19751;40.274;18.268;2023-02-12T07:48:58;102387.25;;;7.72;100.00
33404;BME280;19751;40.274;18.268;2023-02-12T07:51:25;102383.44;;;7.75;100.00
33404;BME280;19751;40.274;18.268;2023-02-12T07:53:51;102383.78;;;7.82;100.00
33404;BME280;19751;40.274;18.268;2023-02-12T07:56:22;102385.94;;;7.88;100.00
33404;BME280;19751;40.274;18.268;2023-02-12T07:58:50;102374.44;;;7.97;100.00
33404;BME280;19751;40.274;18.268;2023-02-12T08:01:28;102370.22;;;8.04;100.00
33404;BME280;19751;40.274;18.268;2023-02-12T08:03:58;102375.22;;;8.09;100.00
33404;BME280;19751;40.274;18.268;2023-02-12T08:06:26;102371.97;;;8.15;100.00
33404;BME280;19751;40.274;18.268;2023-02-12T08:08:56;102377.53;;;8.23;100.00
33404;BME280;19751;40.274;18.268;2023-02-12T08:11:23;102378.81;;;8.29;100.00
33404;BME280;19751;40.274;18.268;2023-02-12T08:13:49;102372.78;;;8.36;100.00
33404;BME280;19751;40.274;18.268;2023-02-12T08:16:18;102379.75;;;8.39;100.00
33404;BME280;19751;40.274;18.268;2023-02-12T08:18:44;102374.97;;;8.42;100.00
33404;BME280;19751;40.274;18.268;2023-02-12T08:21:16;102375.66;;;8.44;100.00
33404;BME280;19751;40.274;18.268;2023-02-12T08:23:45;102377.53;;;8.54;100.00
33404;BME280;19751;40.274;18.268;2023-02-12T08:26:22;102385.50;;;8.65;100.00
33404;BME280;19751;40.274;18.268;2023-02-12T08:28:51;102374.75;;;8.75;100.00
33404;BME280;19751;40.274;18.268;2023-02-12T08:31:22;102373.81;;;8.85;100.00
33404;BME280;19751;40.274;18.268;2023-02-12T08:33:49;102363.06;;;8.95;100.00
33404;BME280;19751;40.274;18.268;2023-02-12T08:36:26;102363.78;;;9.07;100.00
33404;BME280;19751;40.274;18.268;2023-02-12T08:38:52;102368.31;;;9.16;100.00
33404;BME280;19751;40.274;18.268;2023-02-12T08:41:21;102367.50;;;9.25;100.00
33404;BME280;19751;40.274;18.268;2023-02-12T08:43:48;102371.31;;;9.32;100.00
33404;BME280;19751;40.274;18.268;2023-02-12T08:46:16;102373.28;;;9.40;100.00
33404;BME280;19751;40.274;18.268;2023-02-12T08:48:42;102371.00;;;9.45;100.00
33404;BME280;19751;40.274;18.268;2023-02-12T08:51:17;102388.44;;;9.51;100.00
33404;BME280;19751;40.274;18.268;2023-02-12T08:53:46;102383.47;;;9.56;100.00
33404;BME280;19751;40.274;18.268;2023-02-12T08:56:14;102384.91;;;9.60;100.00
33404;BME280;19751;40.274;18.268;2023-02-12T08:58:42;102385.47;;;9.63;100.00
33404;BME280;19751;40.274;18.268;2023-02-12T09:01:10;102384.31;;;9.66;100.00
33404;BME280;19751;40.274;18.268;2023-02-12T09:03:36;102384.75;;;9.71;100.00
33404;BME280;19751;40.274;18.268;2023-02-12T09:06:03;102377.09;;;9.76;100.00
33404;BME280;19751;40.274;18.268;2023-02-12T09:08:29;102390.94;;;9.81;100.00
33404;BME280;19751;40.274;18.268;2023-02-12T09:10:55;102382.44;;;9.86;100.00
33404;BME280;19751;40.274;18.268;2023-02-12T09:13:20;102394.50;;;9.91;100.00
33404;BME280;19751;40.274;18.268;2023-02-12T09:15:46;102401.97;;;9.98;100.00
33404;BME280;19751;40.274;18.268;2023-02-12T09:18:13;102397.31;;;10.00;100.00
33404;BME280;19751;40.274;18.268;2023-02-12T09:20:41;102393.34;;;10.04;100.00
33404;BME280;19751;40.274;18.268;2023-02-12T09:23:08;102392.91;;;10.08;100.00
33404;BME280;19751;40.274;18.268;2023-02-12T09:25:34;102392.06;;;10.08;100.00
33404;BME280;19751;40.274;18.268;2023-02-12T09:28:00;102393.44;;;10.12;100.00
33404;BME280;19751;40.274;18.268;2023-02-12T09:30:26;102400.22;;;10.16;100.00
33404;BME280;19751;40.274;18.268;2023-02-12T09:32:52;102402.63;;;10.19;100.00
33404;BME280;19751;40.274;18.268;2023-02-12T09:35:17;102396.69;;;10.25;100.00
33404;BME280;19751;40.274;18.268;2023-02-12T09:37:43;102401.63;;;10.30;100.00
33404;BME280;19751;40.274;18.268;2023-02-12T09:40:27;102407.59;;;10.33;100.00
33404;BME280;19751;40.274;18.268;2023-02-12T09:43:16;102408.28;;;10.35;100.00
33404;BME280;19751;40.274;18.268;2023-02-12T09:51:03;102396.31;;;10.48;100.00
33404;BME280;19751;40.274;18.268;2023-02-12T09:53:34;102397.72;;;10.52;100.00
33404;BME280;19751;40.274;18.268;2023-02-12T09:56:01;102400.97;;;10.55;100.00
33404;BME280;19751;40.274;18.268;2023-02-12T09:58:42;102395.28;;;10.58;100.00
33404;BME280;19751;40.274;18.268;2023-02-12T10:01:11;102398.38;;;10.63;100.00
33404;BME280;19751;40.274;18.268;2023-02-12T10:03:38;102400.34;;;10.71;100.00
33404;BME280;19751;40.274;18.268;2023-02-12T10:06:12;102388.38;;;10.74;100.00
33404;BME280;19751;40.274;18.268;2023-02-12T10:11:26;102387.94;;;10.78;100.00
33404;BME280;19751;40.274;18.268;2023-02-12T10:14:18;102380.56;;;10.80;100.00
33404;BME280;19751;40.274;18.268;2023-02-12T10:25:32;102366.25;;;10.98;100.00
33404;BME280;19751;40.274;18.268;2023-02-12T10:28:07;102363.25;;;11.01;100.00
33404;BME280;19751;40.274;18.268;2023-02-12T10:30:53;102369.31;;;11.03;100.00
33404;BME280;19751;40.274;18.268;2023-02-12T10:33:24;102361.94;;;11.05;100.00
33404;BME280;19751;40.274;18.268;2023-02-12T10:35:57;102356.56;;;11.05;100.00
33404;BME280;19751;40.274;18.268;2023-02-12T10:38:34;102359.78;;;11.08;100.00
33404;BME280;19751;40.274;18.268;2023-02-12T10:41:00;102356.47;;;11.14;100.00
33404;BME280;19751;40.274;18.268;2023-02-12T10:43:27;102356.34;;;11.16;100.00
33404;BME280;19751;40.274;18.268;2023-02-12T10:45:53;102340.84;;;11.18;100.00
33404;BME280;19751;40.274;18.268;2023-02-12T10:48:23;102348.75;;;11.19;100.00
33404;BME280;19751;40.274;18.268;2023-02-12T10:53:32;102339.59;;;11.30;100.00
33404;BME280;19751;40.274;18.268;2023-02-12T10:56:16;102322.94;;;11.35;100.00
33404;BME280;19751;40.274;18.268;2023-02-12T11:03:51;102317.19;;;11.56;100.00
33404;BME280;19751;40.274;18.268;2023-02-12T11:06:23;102313.88;;;11.62;100.00
33404;BME280;19751;40.274;18.268;2023-02-12T11:08:50;102309.88;;;11.66;100.00
33404;BME280;19751;40.274;18.268;2023-02-12T11:13:55;102300.28;;;11.72;100.00
33404;BME280;19751;40.274;18.268;2023-02-12T11:16:38;102297.09;;;11.76;98.53
33404;BME280;19751;40.274;18.268;2023-02-12T11:19:07;102296.94;;;11.78;97.32
33404;BME280;19751;40.274;18.268;2023-02-12T11:21:42;102293.06;;;11.80;93.64
33404;BME280;19751;40.274;18.268;2023-02-12T11:24:40;102298.88;;;11.85;94.00
33404;BME280;19751;40.274;18.268;2023-02-12T11:29:40;102288.59;;;11.89;90.96
33404;BME280;19751;40.274;18.268;2023-02-12T11:32:07;102283.91;;;11.91;91.54
33404;BME280;19751;40.274;18.268;2023-02-12T11:34:34;102287.44;;;11.91;91.75
33404;BME280;19751;40.274;18.268;2023-02-12T11:37:00;102290.28;;;11.90;92.22
33404;BME280;19751;40.274;18.268;2023-02-12T11:39:35;102287.75;;;11.88;93.26
33404;BME280;19751;40.274;18.268;2023-02-12T11:42:14;102291.47;;;11.87;93.70
33404;BME280;19751;40.274;18.268;2023-02-12T11:44:46;102285.22;;;11.87;94.38
33404;BME280;19751;40.274;18.268;2023-02-12T11:47:18;102294.31;;;11.86;95.19
33404;BME280;19751;40.274;18.268;2023-02-12T11:50:14;102299.56;;;11.87;95.34
33404;BME280;19751;40.274;18.268;2023-02-12T11:52:42;102295.00;;;11.88;95.25
33404;BME280;19751;40.274;18.268;2023-02-12T11:55:28;102294.84;;;11.89;95.01
33404;BME280;19751;40.274;18.268;2023-02-12T12:00:38;102279.03;;;11.94;94.30
33404;BME280;19751;40.274;18.268;2023-02-12T12:03:26;102275.97;;;11.98;94.09
33404;BME280;19751;40.274;18.268;2023-02-12T12:06:04;102277.34;;;12.02;93.57
33404;BME280;19751;40.274;18.268;2023-02-12T12:08:43;102279.91;;;12.03;87.99
33404;BME280;19751;40.274;18.268;2023-02-12T12:11:25;102278.19;;;12.02;86.03
33404;BME280;19751;40.274;18.268;2023-02-12T12:14:02;102280.59;;;12.05;86.96
33404;BME280;19751;40.274;18.268;2023-02-12T12:17:12;102279.44;;;12.08;85.88
33404;BME280;19751;40.274;18.268;2023-02-12T12:20:04;102278.09;;;12.12;85.47
33404;BME280;19751;40.274;18.268;2023-02-12T12:42:30;102276.38;;;12.11;88.18
33404;BME280;19751;40.274;18.268;2023-02-12T12:56:48;102265.19;;;11.98;84.38
33404;BME280;19751;40.274;18.268;2023-02-12T13:02:43;102275.84;;;11.99;83.96
33404;BME280;19751;40.274;18.268;2023-02-12T13:13:49;102260.00;;;12.04;83.98
33404;BME280;19751;40.274;18.268;2023-02-12T13:16:37;102261.69;;;12.05;83.74
33404;BME280;19751;40.274;18.268;2023-02-12T13:19:21;102251.06;;;12.04;83.06
33404;BME280;19751;40.274;18.268;2023-02-12T13:22:23;102250.34;;;12.02;81.51
33404;BME280;19751;40.274;18.268;2023-02-12T13:28:11;102257.78;;;12.00;78.22
33404;BME280;19751;40.274;18.268;2023-02-12T13:30:45;102262.47;;;11.98;76.94
33404;BME280;19751;40.274;18.268;2023-02-12T13:39:51;102259.81;;;12.06;77.08
33404;BME280;19751;40.274;18.268;2023-02-12T13:46:16;102260.69;;;12.14;78.63
33404;BME280;19751;40.274;18.268;2023-02-12T14:01:12;102250.72;;;12.15;88.34
33404;BME280;19751;40.274;18.268;2023-02-12T14:03:40;102250.72;;;12.15;89.16
33404;BME280;19751;40.274;18.268;2023-02-12T14:06:17;102248.91;;;12.15;89.66
33404;BME280;19751;40.274;18.268;2023-02-12T14:08:51;102250.72;;;12.15;89.92
33404;BME280;19751;40.274;18.268;2023-02-12T14:11:21;102251.78;;;12.22;90.80
33404;BME280;19751;40.274;18.268;2023-02-12T14:13:54;102247.97;;;12.41;91.06
33404;BME280;19751;40.274;18.268;2023-02-12T14:21:59;102246.00;;;12.84;88.67
33404;BME280;19751;40.274;18.268;2023-02-12T14:27:05;102252.25;;;12.84;85.38
33404;BME280;19751;40.274;18.268;2023-02-12T14:30:23;102253.94;;;12.85;85.63
33404;BME280;19751;40.274;18.268;2023-02-12T14:38:02;102250.06;;;12.88;80.08
33404;BME280;19751;40.274;18.268;2023-02-12T14:46:41;102245.50;;;12.80;84.63
33404;BME280;19751;40.274;18.268;2023-02-12T14:49:31;102260.19;;;12.69;84.93
33404;BME280;19751;40.274;18.268;2023-02-12T14:52:01;102259.81;;;12.56;85.34
33404;BME280;19751;40.274;18.268;2023-02-12T15:02:24;102256.84;;;12.17;89.12
33404;BME280;19751;40.274;18.268;2023-02-12T15:04:52;102256.31;;;12.13;90.12
33404;BME280;19751;40.274;18.268;2023-02-12T15:07:42;102257.34;;;12.12;90.76
33404;BME280;19751;40.274;18.268;2023-02-12T15:10:19;102251.09;;;12.12;91.18
33404;BME280;19751;40.274;18.268;2023-02-12T15:18:02;102253.44;;;12.07;90.01
33404;BME280;19751;40.274;18.268;2023-02-12T15:20:39;102260.84;;;12.05;89.16
33404;BME280;19751;40.274;18.268;2023-02-12T15:23:35;102263.84;;;12.02;89.70
33404;BME280;19751;40.274;18.268;2023-02-12T15:26:04;102263.50;;;11.97;89.73
33404;BME280;19751;40.274;18.268;2023-02-12T15:28:32;102262.97;;;11.93;89.94
33404;BME280;19751;40.274;18.268;2023-02-12T15:31:02;102267.00;;;11.89;90.39
33404;BME280;19751;40.274;18.268;2023-02-12T15:33:30;102267.31;;;11.86;90.43
33404;BME280;19751;40.274;18.268;2023-02-12T15:35:57;102269.47;;;11.82;89.89
33404;BME280;19751;40.274;18.268;2023-02-12T15:38:33;102279.75;;;11.79;89.18
33404;BME280;19751;40.274;18.268;2023-02-12T15:41:00;102281.75;;;11.77;88.57
33404;BME280;19751;40.274;18.268;2023-02-12T15:43:29;102288.16;;;11.76;88.08
33404;BME280;19751;40.274;18.268;2023-02-12T15:46:02;102293.03;;;11.72;88.10
33404;BME280;19751;40.274;18.268;2023-02-12T15:48:32;102301.44;;;11.69;87.53
33404;BME280;19751;40.274;18.268;2023-02-12T15:51:22;102299.22;;;11.64;87.31
33404;BME280;19751;40.274;18.268;2023-02-12T15:53:50;102300.53;;;11.60;86.56
33404;BME280;19751;40.274;18.268;2023-02-12T15:56:19;102299.31;;;11.55;85.84